Time;durP1;ratioP1;P1;durP2;ratioP2;P2;SDS_P1;SDS_P2;PMS_P1;PMS_P2;Temp;Humidity;BMP_temperature;BMP_pressure;BME280_temperature;BME280_humidity;BME280_pressure;Samples;Min_cycle;Max_cycle;Signal;HPM_P1;HPM_P2
2022/01/13 00:00:58;;;;;;;8.98;2.42;;;;;;;;;;5018938;28;20036;-86
2022/01/13 00:03:24;;;;;;;9.82;2.55;;;;;;;;;;5036385;28;20041;-86
2022/01/13 00:05:50;;;;;;;13.13;2.40;;;;;;;;;;5018754;28;20037;-86
2022/01/13 00:08:17;;;;;;;10.30;2.30;;;;;;;;;;5018745;28;20056;-86
2022/01/13 00:10:43;;;;;;;9.13;2.88;;;;;;;;;;5018503;28;20037;-86
2022/01/13 00:13:13;;;;;;;9.43;2.40;;;;;;;;;;5018490;28;20041;-86
2022/01/13 00:15:46;;;;;;;7.35;2.38;;;;;;;;;;5018509;28;20038;-86
2022/01/13 00:18:15;;;;;;;7.78;2.25;;;;;;;;;;5018487;28;20399;-86
2022/01/13 00:23:43;;;;;;;5.93;2.65;;;;;;;;;;5036292;28;20042;-86
2022/01/13 00:26:23;;;;;;;9.88;2.60;;;;;;;;;;5018395;28;20045;-86
2022/01/13 00:28:51;;;;;;;9.30;2.63;;;;;;;;;;5018340;28;20029;-86
2022/01/13 00:31:23;;;;;;;7.22;2.10;;;;;;;;;;5018094;28;20034;-86
2022/01/13 00:33:54;;;;;;;6.30;1.92;;;;;;;;;;5018212;28;20081;-86
2022/01/13 00:36:20;;;;;;;7.65;2.47;;;;;;;;;;5018173;28;20037;-87
2022/01/13 00:38:47;;;;;;;6.43;1.80;;;;;;;;;;5018225;28;20029;-86
2022/01/13 00:41:13;;;;;;;9.85;2.20;;;;;;;;;;5018019;28;20142;-85
2022/01/13 00:43:41;;;;;;;6.47;1.95;;;;;;;;;;5017996;28;20057;-85
2022/01/13 00:46:09;;;;;;;6.50;2.05;;;;;;;;;;5018128;28;20036;-86
2022/01/13 00:48:35;;;;;;;9.52;2.53;;;;;;;;;;5018001;28;20515;-85
2022/01/13 00:51:01;;;;;;;6.30;2.20;;;;;;;;;;5017868;28;20124;-86
2022/01/13 00:53:27;;;;;;;5.53;2.05;;;;;;;;;;5018457;28;20026;-85
2022/01/13 00:56:00;;;;;;;8.10;1.90;;;;;;;;;;5017736;28;20029;-86
2022/01/13 00:58:27;;;;;;;8.77;2.20;;;;;;;;;;5017477;28;20037;-85
2022/01/13 01:00:54;;;;;;;6.28;2.20;;;;;;;;;;5017618;28;20037;-86
2022/01/13 01:03:20;;;;;;;7.00;2.50;;;;;;;;;;5017731;28;20468;-86
2022/01/13 01:05:47;;;;;;;6.50;2.35;;;;;;;;;;5017572;28;20063;-86
2022/01/13 01:08:13;;;;;;;10.27;4.18;;;;;;;;;;5017407;28;20499;-86
2022/01/13 01:10:40;;;;;;;19.42;6.63;;;;;;;;;;5017382;28;20492;-85
2022/01/13 01:13:17;;;;;;;21.58;7.70;;;;;;;;;;5017176;28;20033;-86
2022/01/13 01:15:47;;;;;;;19.80;7.45;;;;;;;;;;5035212;28;20056;-86
2022/01/13 01:18:31;;;;;;;16.95;6.97;;;;;;;;;;5017488;28;20030;-86
2022/01/13 01:21:31;;;;;;;21.40;8.18;;;;;;;;;;5035051;28;20380;-86
2022/01/13 01:31:31;;;;;;;21.40;7.65;;;;;;;;;;5034940;28;20046;-86
2022/01/13 01:34:16;;;;;;;19.50;6.95;;;;;;;;;;5017150;28;20060;-86
2022/01/13 01:36:43;;;;;;;12.50;4.97;;;;;;;;;;5016945;28;20484;-86
2022/01/13 01:39:09;;;;;;;12.23;4.50;;;;;;;;;;5017153;28;20484;-86
2022/01/13 01:41:42;;;;;;;12.40;4.47;;;;;;;;;;5016631;28;20057;-86
2022/01/13 01:44:10;;;;;;;11.07;3.47;;;;;;;;;;5017003;28;20026;-86
2022/01/13 01:46:38;;;;;;;9.82;2.85;;;;;;;;;;5016821;28;20030;-86
2022/01/13 01:49:14;;;;;;;7.57;2.33;;;;;;;;;;5016944;28;20040;-86
2022/01/13 01:51:41;;;;;;;10.82;2.40;;;;;;;;;;5016804;28;20034;-86
2022/01/13 01:54:07;;;;;;;12.88;2.67;;;;;;;;;;5016726;28;20030;-86
2022/01/13 01:56:34;;;;;;;8.13;2.70;;;;;;;;;;5016501;28;20403;-86
2022/01/13 01:59:03;;;;;;;11.35;2.72;;;;;;;;;;5016491;28;20392;-86
2022/01/13 02:01:30;;;;;;;16.27;5.38;;;;;;;;;;5016869;28;20040;-87
2022/01/13 02:03:56;;;;;;;15.48;5.35;;;;;;;;;;5016680;28;20041;-86
2022/01/13 02:06:22;;;;;;;11.88;5.78;;;;;;;;;;5016841;28;20100;-86
2022/01/13 02:08:49;;;;;;;17.65;5.47;;;;;;;;;;5016819;28;20030;-86
2022/01/13 02:11:15;;;;;;;15.45;3.90;;;;;;;;;;5016502;28;20091;-86
2022/01/13 02:13:48;;;;;;;12.25;4.32;;;;;;;;;;5016370;28;20036;-86
2022/01/13 02:18:57;;;;;;;16.13;4.15;;;;;;;;;;5034295;28;20033;-86
2022/01/13 02:21:26;;;;;;;11.70;3.80;;;;;;;;;;5016586;28;20073;-87
2022/01/13 02:23:53;;;;;;;10.00;3.20;;;;;;;;;;5016249;28;20120;-86
2022/01/13 02:26:21;;;;;;;11.30;3.22;;;;;;;;;;5033811;28;20054;-86
2022/01/13 02:28:48;;;;;;;12.00;3.45;;;;;;;;;;5034056;28;20092;-86
2022/01/13 02:31:14;;;;;;;8.15;3.03;;;;;;;;;;5016446;28;20034;-86
2022/01/13 02:33:41;;;;;;;12.02;3.42;;;;;;;;;;5016235;28;20065;-86
2022/01/13 02:36:08;;;;;;;11.20;3.33;;;;;;;;;;5016220;28;20140;-86
2022/01/13 02:38:35;;;;;;;9.73;3.05;;;;;;;;;;5016263;28;20044;-86
2022/01/13 02:41:03;;;;;;;9.82;3.67;;;;;;;;;;5016764;28;20392;-86
2022/01/13 02:43:30;;;;;;;15.50;3.83;;;;;;;;;;5016305;28;20116;-86
2022/01/13 02:46:18;;;;;;;15.32;4.20;;;;;;;;;;5016397;28;20057;-86
2022/01/13 02:48:44;;;;;;;18.20;4.65;;;;;;;;;;5016033;28;20488;-86
2022/01/13 02:51:11;;;;;;;13.85;4.38;;;;;;;;;;5016105;28;20111;-86
2022/01/13 02:53:37;;;;;;;15.20;4.60;;;;;;;;;;5019236;28;20056;-86
2022/01/13 02:56:05;;;;;;;18.63;6.40;;;;;;;;;;5019945;28;20033;-86
2022/01/13 02:58:35;;;;;;;18.73;7.85;;;;;;;;;;5020026;28;20032;-86
2022/01/13 03:01:02;;;;;;;21.70;7.95;;;;;;;;;;5019983;28;20430;-86
2022/01/13 03:03:30;;;;;;;18.08;8.20;;;;;;;;;;5019786;28;20036;-86
2022/01/13 03:05:56;;;;;;;24.50;8.43;;;;;;;;;;5019938;28;20057;-86
2022/01/13 03:08:23;;;;;;;21.85;9.52;;;;;;;;;;5037664;28;20112;-86
2022/01/13 03:10:49;;;;;;;34.88;12.15;;;;;;;;;;5019928;28;20391;-85
2022/01/13 03:13:18;;;;;;;31.90;14.13;;;;;;;;;;5003595;28;20171;-86
2022/01/13 03:15:44;;;;;;;41.78;16.42;;;;;;;;;;5037467;28;20033;-87
2022/01/13 03:18:10;;;;;;;40.92;18.83;;;;;;;;;;5019690;28;20037;-87
2022/01/13 03:20:37;;;;;;;41.42;18.67;;;;;;;;;;5019494;28;20030;-86
2022/01/13 03:23:05;;;;;;;46.13;18.05;;;;;;;;;;5019849;28;20571;-86
2022/01/13 03:25:32;;;;;;;42.47;17.50;;;;;;;;;;5019424;28;20501;-86
2022/01/13 03:28:05;;;;;;;34.70;14.30;;;;;;;;;;5019541;28;20133;-86
2022/01/13 03:30:32;;;;;;;33.28;13.93;;;;;;;;;;5019280;28;20045;-86
2022/01/13 03:33:00;;;;;;;33.08;13.85;;;;;;;;;;5019701;28;20034;-86
2022/01/13 03:35:27;;;;;;;23.48;10.82;;;;;;;;;;5037464;28;20053;-87
2022/01/13 03:37:53;;;;;;;23.77;9.68;;;;;;;;;;5019305;28;20029;-87
2022/01/13 03:40:20;;;;;;;27.80;11.05;;;;;;;;;;5019207;28;20083;-86
2022/01/13 03:42:47;;;;;;;27.77;11.43;;;;;;;;;;5019230;28;20476;-86
2022/01/13 03:45:14;;;;;;;25.55;10.25;;;;;;;;;;5019190;28;20044;-86
2022/01/13 03:47:40;;;;;;;26.63;9.38;;;;;;;;;;5019039;28;20033;-86
2022/01/13 03:50:06;;;;;;;27.85;9.90;;;;;;;;;;5018986;28;20029;-86
2022/01/13 03:52:51;;;;;;;24.42;9.32;;;;;;;;;;5036759;28;20108;-86
2022/01/13 03:55:36;;;;;;;26.60;9.43;;;;;;;;;;5018825;28;20176;-86
2022/01/13 03:58:05;;;;;;;24.55;9.43;;;;;;;;;;5018847;28;20125;-86
2022/01/13 04:00:41;;;;;;;25.63;9.65;;;;;;;;;;5018894;28;20380;-86
2022/01/13 04:03:08;;;;;;;23.02;9.40;;;;;;;;;;5018545;28;20057;-87
2022/01/13 04:05:55;;;;;;;31.23;9.98;;;;;;;;;;5018618;28;20029;-87
2022/01/13 04:08:21;;;;;;;25.48;8.63;;;;;;;;;;5018030;28;20034;-87
2022/01/13 04:10:48;;;;;;;20.08;8.52;;;;;;;;;;5018666;28;20033;-86
2022/01/13 04:13:33;;;;;;;21.13;8.50;;;;;;;;;;5018595;28;20033;-86
2022/01/13 04:15:59;;;;;;;20.48;8.50;;;;;;;;;;5018426;28;20048;-86
2022/01/13 04:18:26;;;;;;;26.35;9.00;;;;;;;;;;5018502;28;20491;-87
2022/01/13 04:20:52;;;;;;;23.27;8.77;;;;;;;;;;5019022;28;20041;-87
2022/01/13 04:23:18;;;;;;;22.92;8.55;;;;;;;;;;5036329;28;20033;-86
2022/01/13 04:25:45;;;;;;;23.05;8.75;;;;;;;;;;5018540;28;20495;-86
2022/01/13 04:28:12;;;;;;;25.73;9.15;;;;;;;;;;5018275;28;20037;-86
2022/01/13 04:33:08;;;;;;;25.58;10.07;;;;;;;;;;5035628;28;20041;-87
2022/01/13 04:35:34;;;;;;;31.15;11.15;;;;;;;;;;5017998;28;20523;-86
2022/01/13 04:38:00;;;;;;;31.40;10.70;;;;;;;;;;5018246;28;20029;-87
2022/01/13 04:40:27;;;;;;;25.88;10.30;;;;;;;;;;5018316;28;20029;-87
2022/01/13 04:42:55;;;;;;;83.57;34.20;;;;;;;;;;5018174;28;20492;-87
2022/01/13 04:45:22;;;;;;;71.97;33.88;;;;;;;;;;5035800;28;20045;-86
2022/01/13 04:47:50;;;;;;;88.72;36.55;;;;;;;;;;5018116;28;20128;-86
2022/01/13 04:50:16;;;;;;;109.47;41.78;;;;;;;;;;5017987;28;20037;-87
2022/01/13 04:52:42;;;;;;;104.20;40.53;;;;;;;;;;5017988;28;20038;-87
2022/01/13 04:55:11;;;;;;;98.60;40.88;;;;;;;;;;5017743;28;20196;-87
2022/01/13 04:57:37;;;;;;;102.95;44.13;;;;;;;;;;5017699;28;20029;-86
2022/01/13 05:00:05;;;;;;;97.78;41.15;;;;;;;;;;5017763;28;20140;-87
2022/01/13 05:02:31;;;;;;;102.03;40.28;;;;;;;;;;5017812;28;20103;-87
2022/01/13 05:04:57;;;;;;;88.07;39.50;;;;;;;;;;5018255;28;20029;-86
2022/01/13 05:07:24;;;;;;;82.53;37.22;;;;;;;;;;5017850;28;20034;-86
2022/01/13 05:09:50;;;;;;;91.15;38.45;;;;;;;;;;5017713;28;20033;-86
2022/01/13 05:12:17;;;;;;;121.03;42.60;;;;;;;;;;5017396;28;20029;-87
2022/01/13 05:14:47;;;;;;;97.82;37.92;;;;;;;;;;5016662;28;20052;-86
2022/01/13 05:17:35;;;;;;;114.47;41.28;;;;;;;;;;5017718;28;20037;-86
2022/01/13 05:20:13;;;;;;;99.75;39.20;;;;;;;;;;5035010;28;20435;-86
2022/01/13 05:22:40;;;;;;;86.65;38.53;;;;;;;;;;5017489;28;20026;-87
2022/01/13 05:25:06;;;;;;;99.55;41.50;;;;;;;;;;5017048;28;20057;-86
2022/01/13 05:27:32;;;;;;;87.32;37.92;;;;;;;;;;5017173;28;20369;-86
2022/01/13 05:30:01;;;;;;;89.82;40.17;;;;;;;;;;5034879;28;20104;-86
2022/01/13 05:32:28;;;;;;;97.72;38.95;;;;;;;;;;5035070;28;20029;-86
2022/01/13 05:34:54;;;;;;;77.35;31.77;;;;;;;;;;5016906;28;20137;-87
2022/01/13 05:37:20;;;;;;;89.53;34.50;;;;;;;;;;5017317;28;20034;-86
2022/01/13 05:39:46;;;;;;;72.85;31.88;;;;;;;;;;5017070;28;20507;-86
2022/01/13 05:42:13;;;;;;;79.30;34.30;;;;;;;;;;5017042;28;20036;-87
2022/01/13 05:44:40;;;;;;;73.50;33.92;;;;;;;;;;5016996;28;20084;-86
2022/01/13 05:47:07;;;;;;;76.95;35.15;;;;;;;;;;5017415;28;20431;-87
2022/01/13 05:49:33;;;;;;;83.30;35.42;;;;;;;;;;5016870;28;20519;-86
2022/01/13 05:51:59;;;;;;;83.57;35.40;;;;;;;;;;5016969;28;20091;-87
2022/01/13 05:54:26;;;;;;;73.63;33.40;;;;;;;;;;5016865;28;20030;-87
2022/01/13 05:56:52;;;;;;;68.28;30.92;;;;;;;;;;5034515;28;20554;-86
2022/01/13 05:59:20;;;;;;;76.70;34.38;;;;;;;;;;5016825;28;20044;-88
2022/01/13 06:01:46;;;;;;;72.32;33.33;;;;;;;;;;5016753;28;20080;-86
2022/01/13 06:04:12;;;;;;;77.18;33.72;;;;;;;;;;5016440;28;20030;-86
2022/01/13 06:06:39;;;;;;;77.47;32.40;;;;;;;;;;5016843;28;20044;-87
2022/01/13 06:09:05;;;;;;;68.30;31.42;;;;;;;;;;5034215;28;20033;-86
2022/01/13 06:11:38;;;;;;;65.40;27.27;;;;;;;;;;5016858;28;20037;-87
2022/01/13 06:14:05;;;;;;;58.78;23.17;;;;;;;;;;5016483;28;20036;-86
2022/01/13 06:16:31;;;;;;;55.15;24.08;;;;;;;;;;5016598;28;20045;-87
2022/01/13 06:18:58;;;;;;;48.28;19.10;;;;;;;;;;5016675;28;20120;-87
2022/01/13 06:21:24;;;;;;;42.28;16.80;;;;;;;;;;5016527;28;20033;-86
2022/01/13 06:23:50;;;;;;;39.30;17.80;;;;;;;;;;5016428;28;20045;-86
2022/01/13 06:26:16;;;;;;;44.55;19.58;;;;;;;;;;5016447;28;20514;-86
2022/01/13 06:28:43;;;;;;;47.60;19.17;;;;;;;;;;5016382;28;20129;-87
2022/01/13 06:31:09;;;;;;;45.05;20.30;;;;;;;;;;5016457;28;20029;-87
2022/01/13 06:33:35;;;;;;;49.63;21.15;;;;;;;;;;5016387;28;20049;-87
2022/01/13 06:36:05;;;;;;;44.90;20.23;;;;;;;;;;5016271;28;20037;-87
2022/01/13 06:38:32;;;;;;;49.85;19.90;;;;;;;;;;5016444;28;20125;-87
2022/01/13 06:40:58;;;;;;;49.25;19.02;;;;;;;;;;5016753;28;20118;-86
2022/01/13 06:43:24;;;;;;;40.67;16.83;;;;;;;;;;5016473;28;20064;-87
2022/01/13 06:45:51;;;;;;;41.50;18.08;;;;;;;;;;5016724;28;20037;-87
2022/01/13 06:48:17;;;;;;;36.88;16.48;;;;;;;;;;5016265;28;20037;-87
2022/01/13 06:50:43;;;;;;;50.22;17.77;;;;;;;;;;5016248;28;20125;-87
2022/01/13 06:53:10;;;;;;;36.03;16.38;;;;;;;;;;5016237;28;20091;-87
2022/01/13 06:55:36;;;;;;;38.38;15.52;;;;;;;;;;5033910;28;20163;-87
2022/01/13 06:58:02;;;;;;;40.72;16.08;;;;;;;;;;5016400;28;20030;-87
2022/01/13 07:00:29;;;;;;;36.83;15.77;;;;;;;;;;5016326;28;20079;-87
2022/01/13 07:02:58;;;;;;;48.13;16.67;;;;;;;;;;5016223;28;20025;-88
2022/01/13 07:05:24;;;;;;;41.28;16.90;;;;;;;;;;5034055;28;20029;-86
2022/01/13 07:07:51;;;;;;;34.33;15.48;;;;;;;;;;5016082;28;20038;-87
2022/01/13 07:10:17;;;;;;;38.13;16.25;;;;;;;;;;5016033;28;20038;-87
2022/01/13 07:12:44;;;;;;;41.28;15.25;;;;;;;;;;5016135;28;20076;-86
2022/01/13 07:15:11;;;;;;;34.85;15.55;;;;;;;;;;5016058;28;20037;-87
2022/01/13 07:17:38;;;;;;;41.67;16.23;;;;;;;;;;5016089;28;20040;-87
2022/01/13 07:20:04;;;;;;;46.63;18.00;;;;;;;;;;5016036;28;20053;-87
2022/01/13 07:22:31;;;;;;;33.38;16.98;;;;;;;;;;5015923;28;20041;-87
2022/01/13 07:24:57;;;;;;;38.00;16.50;;;;;;;;;;5033693;28;20538;-87
2022/01/13 07:27:23;;;;;;;33.60;16.13;;;;;;;;;;5015877;28;20036;-87
2022/01/13 07:29:50;;;;;;;46.67;17.98;;;;;;;;;;5015953;28;20061;-88
2022/01/13 07:32:16;;;;;;;42.50;17.73;;;;;;;;;;5015982;28;20037;-88
2022/01/13 07:34:42;;;;;;;44.30;19.40;;;;;;;;;;5015576;28;20053;-87
2022/01/13 07:37:09;;;;;;;46.65;18.52;;;;;;;;;;5015822;28;20389;-87
2022/01/13 07:39:38;;;;;;;39.08;17.58;;;;;;;;;;5018156;28;20384;-86
2022/01/13 07:42:05;;;;;;;39.67;17.60;;;;;;;;;;5019297;28;20030;-87
2022/01/13 07:44:32;;;;;;;43.65;18.35;;;;;;;;;;5037121;28;20025;-86
2022/01/13 07:47:00;;;;;;;45.63;17.85;;;;;;;;;;5019065;28;20061;-86
2022/01/13 07:49:27;;;;;;;36.72;16.63;;;;;;;;;;5019225;28;20060;-86
2022/01/13 07:51:53;;;;;;;40.58;17.48;;;;;;;;;;5036773;28;20049;-87
2022/01/13 07:54:20;;;;;;;41.78;16.77;;;;;;;;;;5019434;28;20030;-86
2022/01/13 07:56:46;;;;;;;47.90;17.65;;;;;;;;;;5036744;28;20488;-87
2022/01/13 07:59:12;;;;;;;34.22;16.45;;;;;;;;;;5018790;28;20042;-87
2022/01/13 08:01:39;;;;;;;40.63;16.73;;;;;;;;;;5036606;28;20049;-87
2022/01/13 08:04:05;;;;;;;38.60;15.20;;;;;;;;;;5018915;28;20554;-87
2022/01/13 08:06:31;;;;;;;32.45;13.57;;;;;;;;;;5036678;28;20100;-87
2022/01/13 08:08:58;;;;;;;29.50;12.40;;;;;;;;;;5018781;28;20037;-86
2022/01/13 08:11:24;;;;;;;28.65;12.15;;;;;;;;;;5018605;28;20029;-87
2022/01/13 08:13:50;;;;;;;35.55;12.30;;;;;;;;;;5018419;28;20033;-86
2022/01/13 08:16:17;;;;;;;35.35;12.90;;;;;;;;;;5018708;28;20034;-87
2022/01/13 08:21:28;;;;;;;30.67;13.60;;;;;;;;;;5036299;28;20037;-86
2022/01/13 08:23:55;;;;;;;32.35;13.77;;;;;;;;;;5018491;28;20036;-85
2022/01/13 08:26:21;;;;;;;35.80;14.13;;;;;;;;;;5018509;28;20484;-87
2022/01/13 08:28:47;;;;;;;40.85;14.77;;;;;;;;;;5018391;28;20061;-87
2022/01/13 08:31:14;;;;;;;36.22;13.38;;;;;;;;;;5036336;28;20372;-86
2022/01/13 08:33:40;;;;;;;30.58;13.23;;;;;;;;;;5018160;28;20521;-88
2022/01/13 08:36:07;;;;;;;40.45;14.07;;;;;;;;;;5018357;28;20041;-86
2022/01/13 08:38:34;;;;;;;33.22;12.82;;;;;;;;;;5036048;28;20108;-86
2022/01/13 08:41:01;;;;;;;35.67;14.02;;;;;;;;;;5018127;28;20064;-87
2022/01/13 08:43:28;;;;;;;40.30;15.85;;;;;;;;;;5018167;28;20113;-87
2022/01/13 08:45:54;;;;;;;32.10;13.73;;;;;;;;;;5018189;28;20033;-86
2022/01/13 08:48:21;;;;;;;32.20;14.45;;;;;;;;;;5018103;28;20037;-87
2022/01/13 08:50:48;;;;;;;40.08;14.27;;;;;;;;;;5017281;28;20084;-87
2022/01/13 08:53:16;;;;;;;40.70;15.05;;;;;;;;;;5018048;28;20029;-87
2022/01/13 08:55:42;;;;;;;37.25;13.55;;;;;;;;;;5017784;28;20095;-87
2022/01/13 08:58:08;;;;;;;36.47;13.93;;;;;;;;;;5017893;28;20085;-87
2022/01/13 09:00:37;;;;;;;41.05;15.25;;;;;;;;;;5035670;28;20026;-87
2022/01/13 09:03:07;;;;;;;32.92;14.20;;;;;;;;;;5017810;28;20056;-87
2022/01/13 09:05:34;;;;;;;37.85;15.02;;;;;;;;;;5017773;28;20038;-86
2022/01/13 09:08:00;;;;;;;35.95;14.50;;;;;;;;;;5035364;28;20029;-86
2022/01/13 09:10:27;;;;;;;35.83;13.75;;;;;;;;;;5035022;28;20029;-87
2022/01/13 09:12:53;;;;;;;31.55;12.40;;;;;;;;;;5017441;28;20034;-87
2022/01/13 09:15:31;;;;;;;34.33;14.02;;;;;;;;;;5017513;28;20038;-87
2022/01/13 09:17:59;;;;;;;30.88;14.30;;;;;;;;;;5017730;28;20056;-87
2022/01/13 09:20:26;;;;;;;32.80;13.70;;;;;;;;;;5017620;28;20029;-86
2022/01/13 09:22:52;;;;;;;30.60;13.60;;;;;;;;;;5017409;28;20033;-86
2022/01/13 09:25:18;;;;;;;29.52;13.20;;;;;;;;;;5035220;28;20033;-86
2022/01/13 09:27:45;;;;;;;37.97;14.32;;;;;;;;;;5017336;28;20056;-87
2022/01/13 09:30:12;;;;;;;36.10;13.60;;;;;;;;;;5035080;28;20044;-86
2022/01/13 09:32:39;;;;;;;36.88;14.90;;;;;;;;;;5017239;28;20034;-87
2022/01/13 09:35:06;;;;;;;34.65;14.13;;;;;;;;;;5035487;28;20054;-86
2022/01/13 09:37:34;;;;;;;45.10;16.08;;;;;;;;;;5017089;28;20033;-86
2022/01/13 09:40:00;;;;;;;38.42;14.68;;;;;;;;;;5017257;28;20502;-86
2022/01/13 09:42:27;;;;;;;42.88;16.00;;;;;;;;;;5017028;28;20072;-87
2022/01/13 09:44:57;;;;;;;43.45;15.65;;;;;;;;;;5017041;28;20030;-86
2022/01/13 09:47:24;;;;;;;37.63;16.30;;;;;;;;;;5017214;28;20025;-86
2022/01/13 09:49:51;;;;;;;37.58;14.27;;;;;;;;;;5016947;28;20069;-86
2022/01/13 09:52:17;;;;;;;53.25;18.08;;;;;;;;;;5016844;28;20476;-86
2022/01/13 09:54:43;;;;;;;39.85;16.25;;;;;;;;;;5016544;28;20120;-87
2022/01/13 09:57:10;;;;;;;44.35;17.55;;;;;;;;;;5016690;28;20087;-86
2022/01/13 09:59:36;;;;;;;44.10;16.45;;;;;;;;;;5016609;28;20395;-87
2022/01/13 10:02:02;;;;;;;44.55;17.88;;;;;;;;;;5016503;28;20030;-86
2022/01/13 10:04:48;;;;;;;48.20;16.88;;;;;;;;;;5016802;28;20488;-86
2022/01/13 10:07:18;;;;;;;46.10;18.88;;;;;;;;;;5016505;28;20082;-86
2022/01/13 10:09:58;;;;;;;52.20;18.98;;;;;;;;;;5016689;28;20030;-87
2022/01/13 10:12:32;;;;;;;45.28;17.15;;;;;;;;;;5016562;28;20120;-87
2022/01/13 10:17:25;;;;;;;49.63;18.80;;;;;;;;;;5034257;28;20076;-86
2022/01/13 10:19:55;;;;;;;60.83;18.42;;;;;;;;;;5016506;28;20038;-87
2022/01/13 10:22:23;;;;;;;65.75;20.05;;;;;;;;;;5034238;28;20025;-87
2022/01/13 10:24:55;;;;;;;52.55;18.98;;;;;;;;;;5016620;28;20033;-87
2022/01/13 10:27:23;;;;;;;57.78;23.30;;;;;;;;;;5016341;28;20120;-86
2022/01/13 10:29:53;;;;;;;67.70;26.70;;;;;;;;;;5016814;28;20036;-87
2022/01/13 10:32:23;;;;;;;83.25;30.67;;;;;;;;;;5016368;28;20068;-87
2022/01/13 10:34:51;;;;;;;80.95;28.65;;;;;;;;;;5016038;28;20053;-87
2022/01/13 10:37:19;;;;;;;94.18;31.10;;;;;;;;;;5016411;28;20065;-86
2022/01/13 10:39:49;;;;;;;78.80;25.85;;;;;;;;;;5016346;28;20053;-86
2022/01/13 10:45:17;;;;;;;71.28;25.52;;;;;;;;;;5034015;28;20038;-87
2022/01/13 10:47:54;;;;;;;70.70;24.85;;;;;;;;;;5016466;28;20073;-86
2022/01/13 10:50:21;;;;;;;72.05;27.05;;;;;;;;;;5016180;28;20087;-86
2022/01/13 10:52:49;;;;;;;103.47;38.13;;;;;;;;;;5016697;28;20037;-86
2022/01/13 10:55:20;;;;;;;85.13;34.13;;;;;;;;;;5016259;28;20040;-86
2022/01/13 10:57:47;;;;;;;66.07;26.58;;;;;;;;;;5016167;28;20034;-87
2022/01/13 11:00:24;;;;;;;61.90;24.17;;;;;;;;;;5016261;28;20037;-85
2022/01/13 11:03:04;;;;;;;76.32;24.83;;;;;;;;;;5016207;28;20502;-87
2022/01/13 11:05:32;;;;;;;66.28;23.85;;;;;;;;;;5016329;28;20048;-87
2022/01/13 11:07:59;;;;;;;92.25;25.80;;;;;;;;;;5016153;28;20115;-87
2022/01/13 11:10:26;;;;;;;50.42;20.58;;;;;;;;;;5016036;28;20120;-86
2022/01/13 11:12:58;;;;;;;63.47;21.77;;;;;;;;;;5016043;28;20116;-86
2022/01/13 11:15:25;;;;;;;54.25;20.60;;;;;;;;;;5019734;28;20037;-87
2022/01/13 11:17:53;;;;;;;51.38;20.65;;;;;;;;;;5019807;28;20044;-86
2022/01/13 11:20:20;;;;;;;49.33;20.17;;;;;;;;;;5037056;28;20029;-86
2022/01/13 11:22:47;;;;;;;45.92;20.52;;;;;;;;;;5019474;28;20039;-86
2022/01/13 11:25:15;;;;;;;55.75;21.17;;;;;;;;;;5019447;28;20484;-87
2022/01/13 11:27:42;;;;;;;56.50;20.65;;;;;;;;;;5037139;28;20061;-87
2022/01/13 11:30:13;;;;;;;57.55;21.30;;;;;;;;;;5019588;28;20041;-87
2022/01/13 11:32:40;;;;;;;54.00;19.80;;;;;;;;;;5037446;28;20044;-86
2022/01/13 11:35:08;;;;;;;45.63;18.60;;;;;;;;;;5019036;28;20068;-86
2022/01/13 11:37:34;;;;;;;50.33;19.38;;;;;;;;;;5019442;28;20061;-87
2022/01/13 11:40:01;;;;;;;49.35;22.02;;;;;;;;;;5019236;28;20083;-87
2022/01/13 11:42:27;;;;;;;48.10;19.05;;;;;;;;;;5019391;28;20174;-87
2022/01/13 11:45:14;;;;;;;45.67;19.23;;;;;;;;;;5019315;28;20033;-86
2022/01/13 11:47:41;;;;;;;53.65;22.45;;;;;;;;;;5019121;28;20025;-87
2022/01/13 11:50:20;;;;;;;68.47;27.92;;;;;;;;;;5019033;28;20034;-87
2022/01/13 11:52:53;;;;;;;58.42;26.35;;;;;;;;;;5036616;28;20040;-86
2022/01/13 11:55:41;;;;;;;62.28;23.38;;;;;;;;;;5019471;28;20045;-87
2022/01/13 11:58:14;;;;;;;55.03;21.50;;;;;;;;;;5018842;28;20037;-86
2022/01/13 12:00:45;;;;;;;48.47;21.00;;;;;;;;;;5018884;28;20033;-87
2022/01/13 12:03:31;;;;;;;50.30;21.02;;;;;;;;;;5002717;28;20080;-87
2022/01/13 12:05:58;;;;;;;47.70;21.23;;;;;;;;;;5018999;28;20619;-86
2022/01/13 12:08:35;;;;;;;46.80;19.75;;;;;;;;;;5018768;28;20111;-87
2022/01/13 12:11:01;;;;;;;47.20;19.33;;;;;;;;;;5018736;28;20036;-86
2022/01/13 12:13:35;;;;;;;44.85;18.42;;;;;;;;;;5018363;28;20480;-86
2022/01/13 12:16:02;;;;;;;43.53;16.50;;;;;;;;;;5018696;28;20045;-86
2022/01/13 12:18:44;;;;;;;37.85;15.80;;;;;;;;;;5018500;28;20120;-86
2022/01/13 12:21:27;;;;;;;48.25;18.73;;;;;;;;;;5018808;28;20029;-87
2022/01/13 12:23:55;;;;;;;51.97;22.77;;;;;;;;;;5018097;28;20098;-87
2022/01/13 12:26:33;;;;;;;65.18;26.33;;;;;;;;;;5018532;28;20042;-87
2022/01/13 12:29:10;;;;;;;61.38;26.30;;;;;;;;;;5018455;28;20036;-86
2022/01/13 12:31:48;;;;;;;63.72;29.20;;;;;;;;;;5018523;28;20029;-86
2022/01/13 12:34:43;;;;;;;66.05;30.35;;;;;;;;;;5018026;28;20053;-87
2022/01/13 12:37:12;;;;;;;65.85;26.02;;;;;;;;;;5018372;28;20037;-87
2022/01/13 12:39:43;;;;;;;59.53;24.67;;;;;;;;;;5018610;28;20082;-86
2022/01/13 12:42:20;;;;;;;58.15;25.15;;;;;;;;;;5018135;28;20503;-86
2022/01/13 12:47:31;;;;;;;54.05;22.90;;;;;;;;;;5036338;28;20041;-87
2022/01/13 12:49:58;;;;;;;65.70;25.58;;;;;;;;;;5018094;28;20076;-86
2022/01/13 12:52:27;;;;;;;62.00;26.05;;;;;;;;;;5018127;28;20428;-87
2022/01/13 12:54:54;;;;;;;59.50;26.77;;;;;;;;;;5017919;28;20036;-86
2022/01/13 12:57:24;;;;;;;58.10;25.42;;;;;;;;;;5035578;28;20431;-87
2022/01/13 13:00:01;;;;;;;54.17;25.10;;;;;;;;;;5018643;28;20038;-86
2022/01/13 13:02:28;;;;;;;51.28;23.40;;;;;;;;;;5017872;28;20034;-86
2022/01/13 13:04:55;;;;;;;50.97;22.75;;;;;;;;;;5017845;28;20083;-87
2022/01/13 13:07:21;;;;;;;48.13;23.25;;;;;;;;;;5017802;28;20039;-86
2022/01/13 13:09:48;;;;;;;45.38;21.17;;;;;;;;;;5017591;28;20071;-87
2022/01/13 13:12:24;;;;;;;55.33;20.48;;;;;;;;;;5017648;28;20033;-86
2022/01/13 13:17:40;;;;;;;41.60;17.88;;;;;;;;;;5035532;28;20044;-86
2022/01/13 13:20:09;;;;;;;48.05;18.33;;;;;;;;;;5017612;28;20025;-86
2022/01/13 13:22:49;;;;;;;46.50;19.65;;;;;;;;;;5017559;28;20057;-86
2022/01/13 13:25:30;;;;;;;49.78;20.17;;;;;;;;;;5017544;28;20084;-87
2022/01/13 13:27:57;;;;;;;37.30;17.13;;;;;;;;;;5017416;28;20048;-87
2022/01/13 13:30:24;;;;;;;35.63;17.35;;;;;;;;;;5017336;28;20030;-86
2022/01/13 13:32:51;;;;;;;45.08;18.33;;;;;;;;;;5017434;28;20396;-87
2022/01/13 13:35:18;;;;;;;44.40;17.45;;;;;;;;;;5017153;28;20053;-86
2022/01/13 13:37:45;;;;;;;38.28;18.10;;;;;;;;;;5016585;28;20026;-87
2022/01/13 13:40:22;;;;;;;45.53;21.83;;;;;;;;;;5017217;28;20030;-87
2022/01/13 13:43:02;;;;;;;51.80;21.88;;;;;;;;;;5017191;28;20061;-87
2022/01/13 13:45:29;;;;;;;58.78;23.45;;;;;;;;;;5017170;28;20084;-86
2022/01/13 13:47:56;;;;;;;59.60;23.60;;;;;;;;;;5016991;28;20037;-86
2022/01/13 13:50:23;;;;;;;62.20;26.15;;;;;;;;;;5016937;28;20480;-87
2022/01/13 13:53:04;;;;;;;61.08;26.27;;;;;;;;;;5017176;28;20086;-86
2022/01/13 13:55:30;;;;;;;53.33;24.83;;;;;;;;;;5017022;28;20042;-87
2022/01/13 13:57:57;;;;;;;52.67;21.73;;;;;;;;;;5016926;28;20041;-85
2022/01/13 14:00:27;;;;;;;50.08;18.45;;;;;;;;;;5016678;28;20026;-86
2022/01/13 14:02:54;;;;;;;48.03;19.70;;;;;;;;;;5016800;28;20033;-86
2022/01/13 14:05:24;;;;;;;43.15;19.08;;;;;;;;;;5016732;28;20077;-86
2022/01/13 14:07:51;;;;;;;49.85;19.95;;;;;;;;;;5016636;28;20053;-86
2022/01/13 14:10:23;;;;;;;40.85;17.92;;;;;;;;;;5016559;28;20065;-86
2022/01/13 14:13:10;;;;;;;44.03;18.55;;;;;;;;;;5016608;28;20033;-87
2022/01/13 14:15:41;;;;;;;46.70;18.08;;;;;;;;;;5011400;28;20429;-87
2022/01/13 14:18:11;;;;;;;41.50;18.48;;;;;;;;;;5016668;28;20129;-87
2022/01/13 14:20:37;;;;;;;43.40;18.90;;;;;;;;;;5016645;28;20117;-86
2022/01/13 14:23:08;;;;;;;50.42;19.95;;;;;;;;;;5016694;28;20033;-87
2022/01/13 14:25:36;;;;;;;47.35;22.02;;;;;;;;;;5016653;28;20116;-86
2022/01/13 14:28:13;;;;;;;62.45;28.52;;;;;;;;;;5016538;28;20030;-87
2022/01/13 14:30:43;;;;;;;78.93;33.90;;;;;;;;;;5016480;28;20472;-88
2022/01/13 14:33:22;;;;;;;75.38;34.13;;;;;;;;;;5016102;28;20571;-86
2022/01/13 14:36:03;;;;;;;72.13;33.97;;;;;;;;;;5033981;28;20044;-87
2022/01/13 14:38:35;;;;;;;95.43;41.40;;;;;;;;;;5034279;28;20068;-85
2022/01/13 14:41:01;;;;;;;150.68;61.60;;;;;;;;;;5016468;28;20096;-86
2022/01/13 14:43:28;;;;;;;135.68;57.65;;;;;;;;;;5033998;28;20112;-86
2022/01/13 14:46:03;;;;;;;132.20;53.80;;;;;;;;;;5016555;28;20072;-86
2022/01/13 14:48:29;;;;;;;126.07;52.85;;;;;;;;;;5019105;28;20479;-86
2022/01/13 14:51:03;;;;;;;128.75;52.55;;;;;;;;;;5020311;28;20033;-86
2022/01/13 14:53:30;;;;;;;103.97;43.65;;;;;;;;;;5020097;28;20539;-86
2022/01/13 14:55:56;;;;;;;91.82;40.97;;;;;;;;;;5037595;28;20030;-86
2022/01/13 14:58:22;;;;;;;108.22;46.95;;;;;;;;;;5038157;28;20427;-86
2022/01/13 15:00:48;;;;;;;129.55;54.47;;;;;;;;;;5020091;28;20034;-86